createdAt,value
2018-09-21T00:00:50.544Z,62.56
2018-09-21T00:03:21.462Z,62.19
2018-09-21T00:05:52.429Z,62.88
2018-09-21T00:08:24.290Z,62.23
2018-09-21T00:10:55.369Z,61.25
2018-09-21T00:13:26.374Z,61.82
2018-09-21T00:15:57.434Z,62.24
2018-09-21T00:18:28.424Z,62.52
2018-09-21T00:20:59.466Z,62.14
2018-09-21T00:23:30.444Z,62.83
2018-09-21T00:26:01.466Z,62.38
2018-09-21T00:28:32.447Z,62.36
2018-09-21T00:31:03.480Z,62.43
2018-09-21T00:33:34.675Z,62.31
2018-09-21T00:36:05.609Z,62.89
2018-09-21T00:38:36.465Z,62.35
2018-09-21T00:41:07.476Z,63.02
2018-09-21T00:43:38.441Z,63.37
2018-09-21T00:46:09.489Z,64.13
2018-09-21T00:48:40.438Z,64.01
2018-09-21T00:51:11.447Z,64.29
2018-09-21T00:53:42.441Z,63.78
2018-09-21T00:56:13.440Z,63.86
2018-09-21T00:58:44.417Z,63.96
2018-09-21T01:01:15.420Z,64.15
2018-09-21T01:03:46.431Z,64.65
2018-09-21T01:06:17.435Z,64.40
2018-09-21T01:08:48.433Z,64.23
2018-09-21T01:11:19.556Z,63.94
2018-09-21T01:13:50.477Z,63.68
2018-09-21T01:16:21.437Z,64.61
2018-09-21T01:18:52.394Z,64.10
2018-09-21T01:21:23.472Z,64.79
2018-09-21T01:23:54.433Z,64.91
2018-09-21T01:26:26.462Z,64.37
2018-09-21T01:28:57.451Z,64.74
2018-09-21T01:31:28.484Z,64.97
2018-09-21T01:33:59.444Z,64.56
2018-09-21T01:36:30.449Z,64.66
2018-09-21T01:39:01.432Z,65.20
2018-09-21T01:41:32.446Z,64.74
2018-09-21T01:44:03.445Z,64.94
2018-09-21T01:46:34.581Z,64.89
2018-09-21T01:49:05.472Z,65.51
2018-09-21T01:51:36.482Z,64.88
2018-09-21T01:54:07.445Z,65.73
2018-09-21T01:56:38.450Z,65.61
2018-09-21T01:59:09.513Z,65.63
2018-09-21T02:01:40.457Z,65.89
2018-09-21T02:04:11.420Z,65.90
2018-09-21T02:06:42.440Z,66.77
2018-09-21T02:09:13.444Z,66.40
2018-09-21T02:11:44.440Z,66.27
2018-09-21T02:14:22.013Z,65.90
2018-09-21T02:16:53.394Z,65.82
2018-09-21T02:19:24.465Z,65.49
2018-09-21T02:21:55.407Z,65.98
2018-09-21T02:24:26.406Z,66.57
2018-09-21T02:26:57.440Z,66.31
2018-09-21T02:29:28.380Z,66.13
2018-09-21T02:31:59.398Z,66.65
2018-09-21T02:34:30.385Z,67.64
2018-09-21T02:37:01.413Z,67.86
2018-09-21T02:39:32.409Z,66.69
2018-09-21T02:42:03.396Z,67.18
2018-09-21T02:44:34.385Z,67.65
2018-09-21T02:47:05.404Z,67.18
2018-09-21T02:49:36.402Z,67.62
2018-09-21T02:52:07.445Z,66.92
2018-09-21T02:54:38.517Z,66.82
2018-09-21T02:57:09.409Z,67.69
2018-09-21T02:59:40.379Z,67.22
2018-09-21T03:02:11.410Z,67.37
2018-09-21T03:04:47.437Z,67.25
2018-09-21T03:07:18.404Z,67.88
2018-09-21T03:09:49.362Z,67.29
2018-09-21T03:12:20.374Z,67.60
2018-09-21T03:14:51.385Z,67.89
2018-09-21T03:17:22.392Z,68.32
2018-09-21T03:19:53.405Z,69.01
2018-09-21T03:22:24.389Z,68.06
2018-09-21T03:24:55.384Z,68.50
2018-09-21T03:27:26.407Z,68.14
2018-09-21T03:29:57.394Z,68.24
2018-09-21T03:32:28.425Z,67.93
2018-09-21T03:34:59.433Z,69.16
2018-09-21T03:37:30.379Z,68.39
2018-09-21T03:40:01.382Z,68.53
2018-09-21T03:42:32.478Z,68.76
2018-09-21T03:45:03.377Z,68.91
2018-09-21T03:47:34.416Z,68.79
2018-09-21T03:50:05.461Z,68.65
2018-09-21T03:52:36.517Z,68.76
2018-09-21T03:55:08.066Z,68.94
2018-09-21T03:57:39.517Z,68.47
2018-09-21T04:00:10.769Z,68.75
2018-09-21T04:02:41.524Z,68.38
2018-09-21T04:05:12.368Z,69.08
2018-09-21T04:07:43.378Z,68.80
2018-09-21T04:10:14.430Z,68.18
2018-09-21T04:12:45.399Z,68.51
2018-09-21T04:15:16.469Z,68.36
2018-09-21T04:17:47.452Z,68.57
2018-09-21T04:20:18.393Z,68.22
2018-09-21T04:22:58.488Z,68.96
2018-09-21T04:25:29.617Z,69.31
2018-09-21T04:28:00.505Z,68.64
2018-09-21T04:30:31.459Z,69.26
2018-09-21T04:33:02.410Z,68.98
2018-09-21T04:35:33.391Z,68.42
2018-09-21T04:38:04.409Z,68.85
2018-09-21T04:40:35.405Z,68.92
2018-09-21T04:43:06.397Z,68.38
2018-09-21T04:45:37.406Z,69.17
2018-09-21T04:48:08.395Z,68.70
2018-09-21T04:50:39.578Z,68.90
2018-09-21T04:53:10.616Z,68.64
2018-09-21T04:55:41.471Z,67.87
2018-09-21T04:58:12.377Z,68.11
2018-09-21T05:00:43.387Z,67.94
2018-09-21T05:03:14.387Z,67.24
2018-09-21T05:05:45.376Z,67.09
2018-09-21T05:08:16.418Z,66.66
2018-09-21T05:10:47.391Z,66.66
2018-09-21T05:13:18.454Z,66.19
2018-09-21T05:15:49.652Z,67.54
2018-09-21T05:18:20.485Z,66.85
2018-09-21T05:20:51.438Z,66.48
2018-09-21T05:23:22.494Z,67.25
2018-09-21T05:25:53.433Z,67.56
2018-09-21T05:28:24.464Z,67.27
2018-09-21T05:30:55.432Z,67.70
2018-09-21T05:33:26.433Z,67.88
2018-09-21T05:35:57.465Z,66.65
2018-09-21T05:38:28.435Z,67.10
2018-09-21T05:40:59.413Z,67.24
2018-09-21T05:43:30.585Z,68.15
2018-09-21T05:46:01.441Z,67.88
2018-09-21T05:48:32.449Z,68.74
2018-09-21T05:51:03.490Z,68.93
2018-09-21T05:53:34.495Z,68.48
2018-09-21T05:56:05.491Z,68.25
2018-09-21T05:58:36.432Z,67.00
2018-09-21T06:01:07.742Z,67.75
2018-09-21T06:03:38.619Z,67.78
2018-09-21T06:06:09.518Z,67.37
2018-09-21T06:08:40.494Z,66.42
2018-09-21T06:11:11.462Z,65.86
2018-09-21T06:13:42.483Z,65.81
2018-09-21T06:16:13.518Z,66.16
2018-09-21T06:18:44.475Z,65.96
2018-09-21T06:21:15.618Z,65.85
2018-09-21T06:23:46.517Z,66.15
2018-09-21T06:26:17.531Z,65.58
2018-09-21T06:28:48.519Z,64.44
2018-09-21T06:31:21.044Z,64.18
2018-09-21T06:33:52.392Z,64.54
2018-09-21T06:36:24.223Z,63.89
2018-09-21T06:38:55.407Z,63.12
2018-09-21T06:41:26.531Z,63.49
2018-09-21T06:43:57.532Z,63.04
2018-09-21T06:46:28.523Z,62.86
2018-09-21T06:48:59.537Z,62.76
2018-09-21T06:51:30.485Z,62.06
2018-09-21T06:54:01.486Z,62.77
2018-09-21T06:56:32.486Z,61.46
2018-09-21T06:59:03.572Z,61.39
2018-09-21T07:01:34.705Z,61.59
2018-09-21T07:04:05.546Z,60.31
2018-09-21T07:06:36.598Z,60.39
2018-09-21T07:09:13.742Z,61.12
2018-09-21T07:11:44.569Z,60.39
2018-09-21T07:14:15.498Z,60.06
2018-09-21T07:16:46.541Z,59.50
2018-09-21T07:19:18.282Z,59.87
2018-09-21T07:21:49.380Z,59.90
2018-09-21T07:24:20.486Z,59.75
2018-09-21T07:26:51.462Z,59.13
2018-09-21T07:29:22.474Z,59.57
2018-09-21T07:31:53.434Z,59.66
2018-09-21T07:34:24.510Z,58.14
2018-09-21T07:36:55.497Z,58.41
2018-09-21T07:39:26.482Z,59.22
2018-09-21T07:41:57.450Z,58.39
2018-09-21T07:44:28.477Z,57.87
2018-09-21T07:46:59.570Z,57.36
2018-09-21T07:49:30.556Z,57.52
2018-09-21T07:52:01.461Z,57.19
2018-09-21T07:54:32.663Z,56.70
2018-09-21T07:57:03.546Z,56.87
2018-09-21T07:59:34.478Z,56.17
2018-09-21T08:02:05.400Z,55.95
2018-09-21T08:04:36.465Z,56.17
2018-09-21T08:07:07.503Z,55.04
2018-09-21T08:09:38.509Z,55.11
2018-09-21T08:12:09.490Z,54.74
2018-09-21T08:14:40.598Z,55.30
2018-09-21T08:17:11.580Z,54.40
2018-09-21T08:19:43.287Z,54.64
2018-09-21T08:22:14.386Z,55.06
2018-09-21T08:24:45.490Z,54.77
2018-09-21T08:27:18.371Z,53.88
2018-09-21T08:29:49.591Z,54.20
2018-09-21T08:32:20.473Z,53.15
2018-09-21T08:34:51.549Z,52.99
2018-09-21T08:37:22.539Z,53.07
2018-09-21T08:39:53.490Z,53.26
2018-09-21T08:42:24.420Z,53.22
2018-09-21T08:44:55.514Z,52.77
2018-09-21T08:47:26.473Z,53.04
2018-09-21T08:49:58.389Z,52.41
2018-09-21T08:52:29.481Z,52.40
2018-09-21T08:55:00.511Z,52.81
2018-09-21T08:57:31.478Z,52.36
2018-09-21T09:00:02.482Z,53.14
2018-09-21T09:02:33.471Z,52.55
2018-09-21T09:05:04.469Z,52.04
2018-09-21T09:07:35.473Z,52.46
2018-09-21T09:10:07.171Z,52.11
2018-09-21T09:12:38.317Z,52.10
2018-09-21T09:15:09.377Z,52.15
2018-09-21T09:17:40.381Z,51.74
2018-09-21T09:20:11.598Z,52.41
2018-09-21T09:22:42.488Z,51.77
2018-09-21T09:25:13.421Z,52.00
2018-09-21T09:27:44.441Z,52.35
2018-09-21T09:30:15.485Z,52.97
2018-09-21T09:32:46.441Z,52.10
2018-09-21T09:35:17.478Z,52.77
2018-09-21T09:37:48.450Z,51.97
2018-09-21T09:40:19.453Z,52.93
2018-09-21T09:42:50.605Z,52.97
2018-09-21T09:45:21.537Z,52.80
2018-09-21T09:47:52.445Z,52.69
2018-09-21T09:50:24.239Z,53.59
2018-09-21T09:52:55.374Z,53.38
2018-09-21T09:55:26.394Z,53.20
2018-09-21T09:57:57.435Z,52.59
2018-09-21T10:00:33.506Z,52.70
2018-09-21T10:03:04.554Z,52.57
2018-09-21T10:05:35.469Z,53.25
2018-09-21T10:08:06.433Z,52.35
2018-09-21T10:10:38.298Z,51.61
2018-09-21T10:13:08.449Z,51.19
2018-09-21T10:15:39.608Z,51.62
2018-09-21T10:18:10.955Z,51.70
2018-09-21T10:20:41.752Z,51.41
2018-09-21T10:23:12.556Z,51.54
2018-09-21T10:25:43.509Z,50.28
2018-09-21T10:28:14.544Z,50.65
2018-09-21T10:30:45.542Z,49.10
2018-09-21T10:33:16.472Z,48.69
2018-09-21T10:35:47.437Z,47.90
2018-09-21T10:38:18.462Z,47.21
2018-09-21T10:40:49.494Z,46.90
2018-09-21T10:43:20.449Z,46.39
2018-09-21T10:45:51.493Z,46.60
2018-09-21T10:48:22.473Z,46.66
2018-09-21T10:50:53.532Z,46.52
2018-09-21T10:53:24.469Z,45.96
2018-09-21T10:55:55.457Z,45.63
2018-09-21T10:58:26.491Z,46.03
2018-09-21T11:00:57.514Z,47.08
2018-09-21T11:03:28.450Z,46.24
2018-09-21T11:05:59.501Z,46.39
2018-09-21T11:08:30.480Z,46.19
2018-09-21T11:11:01.480Z,46.13
2018-09-21T11:13:32.482Z,46.54
2018-09-21T11:16:03.592Z,46.50
2018-09-21T11:18:34.498Z,46.19
2018-09-21T11:21:05.465Z,46.96
2018-09-21T11:23:36.509Z,46.75
2018-09-21T11:26:07.472Z,46.17
2018-09-21T11:28:38.670Z,45.93
2018-09-21T11:31:09.525Z,46.42
2018-09-21T11:33:40.476Z,45.27
2018-09-21T11:36:11.519Z,45.35
2018-09-21T11:38:42.537Z,44.64
2018-09-21T11:41:13.510Z,43.43
2018-09-21T11:43:44.477Z,42.76
2018-09-21T11:46:15.469Z,43.08
2018-09-21T11:48:46.521Z,43.31
2018-09-21T11:51:17.491Z,42.80
2018-09-21T11:53:48.485Z,42.85
2018-09-21T11:56:19.481Z,42.48
2018-09-21T11:58:50.557Z,41.97
2018-09-21T12:01:21.494Z,41.88
2018-09-21T12:03:52.578Z,42.07
2018-09-21T12:06:23.491Z,42.55
2018-09-21T12:08:54.445Z,42.14
2018-09-21T12:11:25.494Z,43.05
2018-09-21T12:13:56.475Z,43.36
2018-09-21T12:16:27.478Z,42.24
2018-09-21T12:18:58.480Z,43.45
2018-09-21T12:21:29.486Z,43.25
2018-09-21T12:24:00.807Z,43.23
2018-09-21T12:26:31.590Z,43.87
2018-09-21T12:29:02.478Z,43.77
2018-09-21T12:31:33.403Z,45.40
2018-09-21T12:34:04.416Z,46.13
2018-09-21T12:36:35.399Z,48.14
2018-09-21T12:39:11.309Z,49.52
2018-09-21T12:41:42.387Z,50.82
2018-09-21T12:44:16.357Z,51.47
2018-09-21T12:46:47.382Z,52.01
2018-09-21T12:49:18.408Z,53.84
2018-09-21T12:51:49.453Z,54.95
2018-09-21T12:54:20.420Z,55.41
2018-09-21T12:56:51.470Z,55.90
2018-09-21T12:59:22.514Z,56.86
2018-09-21T13:01:53.473Z,57.80
2018-09-21T13:04:24.485Z,58.27
2018-09-21T13:06:55.514Z,57.72
2018-09-21T13:09:26.509Z,59.60
2018-09-21T13:11:57.436Z,60.23
2018-09-21T13:14:28.507Z,60.95
2018-09-21T13:16:59.473Z,64.16
2018-09-21T13:19:30.491Z,66.45
2018-09-21T13:22:01.483Z,69.40
2018-09-21T13:24:32.461Z,70.03
2018-09-21T13:27:03.707Z,71.58
2018-09-21T13:29:34.567Z,72.58
2018-09-21T13:32:07.267Z,73.60
2018-09-21T13:34:38.361Z,73.39
2018-09-21T13:37:09.393Z,74.79
2018-09-21T13:39:40.538Z,73.71
2018-09-21T13:42:11.517Z,74.15
2018-09-21T13:44:42.458Z,76.93
2018-09-21T13:47:13.518Z,76.42
2018-09-21T13:49:44.472Z,76.92
2018-09-21T13:52:15.496Z,76.46
2018-09-21T13:54:46.454Z,77.21
2018-09-21T13:57:17.485Z,75.39
2018-09-21T13:59:48.526Z,75.36
2018-09-21T14:02:19.694Z,74.56
2018-09-21T14:04:50.577Z,75.75
2018-09-21T14:07:21.513Z,75.82
2018-09-21T14:09:52.451Z,75.42
2018-09-21T14:12:23.502Z,75.89
2018-09-21T14:14:54.424Z,74.85
2018-09-21T14:17:25.602Z,75.29
2018-09-21T14:19:56.550Z,75.19
2018-09-21T14:22:27.536Z,75.37
2018-09-21T14:24:58.525Z,75.95
2018-09-21T14:27:29.492Z,76.67
2018-09-21T14:30:00.513Z,77.02
2018-09-21T14:32:31.606Z,77.30
2018-09-21T14:35:02.495Z,78.18
2018-09-21T14:37:33.485Z,77.12
2018-09-21T14:40:04.416Z,77.98
2018-09-21T14:42:35.411Z,77.94
2018-09-21T14:45:07.181Z,77.15
2018-09-21T14:47:38.302Z,77.92
2018-09-21T14:50:09.514Z,77.32
2018-09-21T14:52:40.490Z,75.81
2018-09-21T14:55:11.417Z,76.13
2018-09-21T14:57:42.455Z,76.08
2018-09-21T15:00:13.393Z,76.49
2018-09-21T15:02:44.488Z,75.54
2018-09-21T15:05:15.470Z,75.46
2018-09-21T15:07:46.441Z,75.88
2018-09-21T15:10:17.434Z,75.32
2018-09-21T15:12:49.231Z,73.89
2018-09-21T15:15:20.345Z,73.82
2018-09-21T15:17:51.317Z,74.53
2018-09-21T15:20:22.392Z,72.91
2018-09-21T15:22:53.418Z,73.98
2018-09-21T15:25:24.477Z,72.49
2018-09-21T15:27:55.485Z,73.29
2018-09-21T15:30:26.421Z,73.54
2018-09-21T15:32:57.488Z,72.95
2018-09-21T15:35:28.492Z,71.74
2018-09-21T15:37:59.465Z,72.37
2018-09-21T15:40:30.433Z,71.76
2018-09-21T15:43:01.447Z,72.08
2018-09-21T15:45:32.510Z,71.53
2018-09-21T15:48:03.595Z,71.00
2018-09-21T15:50:34.525Z,70.37
2018-09-21T15:53:05.564Z,70.02
2018-09-21T15:55:36.472Z,69.15
2018-09-21T15:58:07.447Z,69.78
2018-09-21T16:00:38.859Z,69.30
2018-09-21T16:03:09.769Z,69.45
2018-09-21T16:05:40.590Z,68.99
2018-09-21T16:08:11.459Z,68.81
2018-09-21T16:10:42.393Z,69.28
2018-09-21T16:13:13.479Z,68.92
2018-09-21T16:15:44.532Z,69.16
2018-09-21T16:18:15.536Z,67.81
2018-09-21T16:20:46.453Z,67.91
2018-09-21T16:23:17.517Z,67.72
2018-09-21T16:25:48.489Z,68.17
2018-09-21T16:28:19.606Z,68.05
2018-09-21T16:30:50.527Z,69.96
2018-09-21T16:33:21.485Z,67.43
2018-09-21T16:35:52.469Z,66.80
2018-09-21T16:38:23.529Z,65.84
2018-09-21T16:40:54.528Z,66.28
2018-09-21T16:43:25.498Z,65.84
2018-09-21T16:45:56.489Z,66.73
2018-09-21T16:48:27.511Z,66.48
2018-09-21T16:50:58.506Z,65.46
2018-09-21T16:53:29.501Z,65.02
2018-09-21T16:56:00.498Z,63.29
2018-09-21T16:58:32.232Z,64.44
2018-09-21T17:01:03.338Z,62.52
2018-09-21T17:03:34.378Z,62.30
2018-09-21T17:06:05.456Z,62.80
2018-09-21T17:08:36.498Z,62.89
2018-09-21T17:11:07.501Z,62.39
2018-09-21T17:13:38.498Z,62.82
2018-09-21T17:16:09.485Z,62.04
2018-09-21T17:18:40.551Z,62.13
2018-09-21T17:21:11.593Z,61.43
2018-09-21T17:23:42.491Z,61.39
2018-09-21T17:26:13.457Z,61.03
2018-09-21T17:28:44.517Z,58.90
2018-09-21T17:31:15.531Z,59.08
2018-09-21T17:33:46.626Z,57.62
2018-09-21T17:36:17.636Z,57.45
2018-09-21T17:38:48.586Z,56.41
2018-09-21T17:41:19.509Z,55.66
2018-09-21T17:43:50.478Z,55.41
2018-09-21T17:46:21.492Z,53.59
2018-09-21T17:48:52.516Z,52.34
2018-09-21T17:51:23.482Z,53.33
2018-09-21T17:53:54.470Z,52.78
2018-09-21T17:56:25.460Z,52.18
2018-09-21T17:58:56.531Z,51.47
2018-09-21T18:01:28.020Z,51.10
2018-09-21T18:03:59.274Z,50.57
2018-09-21T18:06:29.494Z,50.01
2018-09-21T18:09:00.498Z,50.61
2018-09-21T18:11:31.449Z,50.03
2018-09-21T18:14:02.490Z,50.91
2018-09-21T18:16:33.526Z,49.45
2018-09-21T18:19:04.446Z,50.15
2018-09-21T18:21:35.578Z,49.22
2018-09-21T18:24:06.509Z,49.04
2018-09-21T18:26:37.440Z,49.75
2018-09-21T18:29:08.483Z,48.97
2018-09-21T18:31:39.417Z,49.00
2018-09-21T18:34:10.529Z,48.21
2018-09-21T18:36:41.481Z,48.04
2018-09-21T18:39:12.485Z,48.69
2018-09-21T18:41:43.552Z,48.64
2018-09-21T18:44:14.580Z,47.95
2018-09-21T18:46:45.505Z,47.87
2018-09-21T18:49:16.502Z,47.75
2018-09-21T18:51:47.529Z,48.18
2018-09-21T18:54:18.531Z,46.92
2018-09-21T18:56:49.510Z,47.79
2018-09-21T18:59:20.570Z,47.16
2018-09-21T19:01:51.563Z,47.54
2018-09-21T19:04:22.562Z,46.74
2018-09-21T19:06:53.610Z,47.58
2018-09-21T19:09:24.611Z,46.89
2018-09-21T19:11:55.672Z,46.70
2018-09-21T19:14:26.696Z,48.16
2018-09-21T19:16:57.705Z,47.28
2018-09-21T19:19:28.635Z,47.10
2018-09-21T19:21:59.692Z,47.42
2018-09-21T19:24:30.603Z,47.04
2018-09-21T19:27:01.547Z,47.04
2018-09-21T19:29:32.518Z,47.23
2018-09-21T19:32:03.506Z,47.00
2018-09-21T19:34:34.531Z,46.93
2018-09-21T19:37:05.517Z,47.30
2018-09-21T19:39:36.531Z,47.26
2018-09-21T19:42:07.571Z,47.44
2018-09-21T19:44:38.543Z,47.48
2018-09-21T19:47:09.574Z,47.58
2018-09-21T19:52:24.618Z,47.80
2018-09-21T19:54:56.117Z,47.58
2018-09-21T19:57:27.288Z,47.79
2018-09-21T19:59:58.467Z,48.26
2018-09-21T20:02:29.492Z,48.79
2018-09-21T20:05:00.530Z,48.01
2018-09-21T20:07:31.507Z,49.08
2018-09-21T20:10:02.559Z,49.21
2018-09-21T20:12:33.528Z,48.70
2018-09-21T20:15:04.527Z,49.17
2018-09-21T20:17:35.497Z,48.69
2018-09-21T20:20:06.474Z,48.69
2018-09-21T20:22:37.499Z,49.65
2018-09-21T20:25:08.562Z,49.55
2018-09-21T20:27:39.634Z,49.19
2018-09-21T20:30:15.723Z,49.40
2018-09-21T20:32:51.721Z,50.15
2018-09-21T20:35:22.575Z,50.36
2018-09-21T20:37:53.519Z,51.45
2018-09-21T20:40:24.490Z,52.66
2018-09-21T20:42:55.541Z,52.40
2018-09-21T20:45:26.538Z,53.37
2018-09-21T20:48:00.538Z,54.28
2018-09-21T20:50:31.638Z,54.96
2018-09-21T20:53:02.510Z,54.47
2018-09-21T20:55:33.598Z,54.90
2018-09-21T20:58:04.530Z,53.49
2018-09-21T21:00:35.497Z,53.88
2018-09-21T21:03:06.490Z,53.26
2018-09-21T21:05:37.539Z,53.15
2018-09-21T21:08:08.523Z,51.50
2018-09-21T21:10:39.503Z,51.68
2018-09-21T21:13:10.611Z,51.62
2018-09-21T21:15:42.070Z,50.87
2018-09-21T21:18:13.476Z,50.03
2018-09-21T21:20:44.674Z,49.62
2018-09-21T21:23:15.651Z,50.33
2018-09-21T21:25:46.623Z,50.02
2018-09-21T21:28:17.520Z,50.37
2018-09-21T21:30:48.523Z,49.25
2018-09-21T21:33:19.558Z,49.57
2018-09-21T21:35:50.486Z,49.66
2018-09-21T21:38:21.520Z,49.08
2018-09-21T21:40:52.534Z,48.71
2018-09-21T21:43:23.628Z,48.96
2018-09-21T21:45:54.705Z,49.46
2018-09-21T21:48:25.556Z,50.10
2018-09-21T21:54:11.445Z,48.85
2018-09-21T21:56:42.473Z,48.92
2018-09-21T21:59:13.570Z,49.42
2018-09-21T22:01:47.785Z,49.08
2018-09-21T22:04:19.573Z,49.79
2018-09-21T22:06:50.552Z,49.42
2018-09-21T22:09:21.537Z,49.20
2018-09-21T22:11:57.746Z,49.51
2018-09-21T22:14:28.666Z,49.62
2018-09-21T22:16:59.649Z,49.45
2018-09-21T22:19:30.574Z,50.87
2018-09-21T22:22:06.528Z,49.89
2018-09-21T22:24:37.663Z,50.27
2018-09-21T22:27:08.653Z,50.00
2018-09-21T22:29:40.934Z,50.43
2018-09-21T22:32:11.689Z,49.74
2018-09-21T22:34:42.518Z,50.42
2018-09-21T22:37:13.557Z,50.67
2018-09-21T22:39:44.487Z,50.23
2018-09-21T22:42:15.455Z,50.12
2018-09-21T22:44:46.447Z,50.50
2018-09-21T22:47:17.413Z,50.57
2018-09-21T22:49:48.449Z,50.65
2018-09-21T22:52:19.450Z,51.27
2018-09-21T22:54:50.457Z,50.80
2018-09-21T22:57:21.441Z,51.35
2018-09-21T22:59:52.447Z,52.10
2018-09-21T23:02:23.457Z,52.10
2018-09-21T23:04:54.418Z,52.99
2018-09-21T23:07:25.453Z,53.14
2018-09-21T23:09:56.402Z,53.54
2018-09-21T23:12:27.413Z,54.12
2018-09-21T23:14:58.393Z,53.96
2018-09-21T23:17:29.392Z,54.61
2018-09-21T23:20:00.392Z,54.81
2018-09-21T23:22:31.425Z,54.85
2018-09-21T23:25:02.422Z,54.93
2018-09-21T23:27:33.449Z,55.13
2018-09-21T23:30:04.377Z,55.21
2018-09-21T23:32:35.397Z,55.15
2018-09-21T23:35:06.418Z,55.00
2018-09-21T23:37:37.463Z,54.85
2018-09-21T23:40:08.454Z,54.31
2018-09-21T23:42:39.453Z,55.38
2018-09-21T23:45:10.473Z,54.88
2018-09-21T23:47:41.445Z,55.14
2018-09-21T23:50:12.442Z,55.60
2018-09-21T23:52:43.477Z,55.56
2018-09-21T23:55:14.441Z,55.28
2018-09-21T23:57:45.985Z,55.29
